Hlavní strana
METAR-TAF:

METAR-TAF

Letiště :

Statesville Regional Airport

Statesville, Severní Karolína, Spojené státy americké

zeměpisná šířka: 35-45-55N, zeměpisná délka: 080-57-24W, výška: 294 m

Aktuální stav počasí

Zpráva byla vytvořena před 31 minutami, v 00:55 UTC
Bezvětří
Teplota 22°C
Vlhkost vzduchu 94%
Tlak 1017 hPa
Viditelnost: 16.1 km
Polojasno ve výšce 6000 ft
Polojasno ve výšce 8000 ft
Zataženo ve výšce 12000 ft

METAR: KSVH 300055Z AUTO 00000KT 10SM SCT060 SCT080 OVC120 22/21 A3003 RMK AO2 P0001 T02210205

Čas: 21:26 (01:26 UTC)


TAF: chybějící

Stav a předpovědi počasí z více než 4 000 letišť (zprávy METAR a TAF).

Červené a žluté tečky na mapě představují dostupné meteorologické stanice.

Když kurzor umístíte na tečku, zobrazí se název stanice.

Pak kliknutím zobrazíte stav a předpověď počasí.

Chcete-li změnit mapu, kliknutím na zelené tlačítko se znaménkem +mapu přiblížíte, kliknutím na zelené tlačítko se znaménkem – mapu oddálíte a kliknutím na zelené šipky přejdete na sousední mapy.


METAR-TAF: